Time;durP1;ratioP1;P1;durP2;ratioP2;P2;SDS_P1;SDS_P2;PMS_P1;PMS_P2;Temp;Humidity;BMP_temperature;BMP_pressure;BME280_temperature;BME280_humidity;BME280_pressure;Samples;Min_cycle;Max_cycle;Signal;HPM_P1;HPM_P2
2022/05/05 00:01:07;;;;;;;3.38;2.28;;;1.50;99.90;1.60;99050.00;;;;4856690;28;87766;-66
2022/05/05 00:03:34;;;;;;;4.05;2.22;;;1.50;99.90;1.60;99043.00;;;;4871495;28;87316;-67
2022/05/05 00:06:00;;;;;;;4.22;2.25;;;1.40;99.90;1.50;99040.00;;;;4853348;29;87388;-67
2022/05/05 00:08:26;;;;;;;4.68;2.70;;;1.40;99.90;1.50;99040.00;;;;4857743;29;87517;-66
2022/05/05 00:16:21;;;;;;;3.05;2.25;;;1.30;99.90;1.40;99038.00;;;;4879324;28;87367;-66
2022/05/05 00:18:48;;;;;;;4.32;2.30;;;1.30;99.90;1.40;99050.00;;;;4851834;28;87091;-66
2022/05/05 00:21:15;;;;;;;3.33;2.35;;;1.20;99.90;1.30;99061.00;;;;4854349;29;89631;-66
2022/05/05 00:23:41;;;;;;;3.75;2.30;;;1.20;99.90;1.30;99060.00;;;;4871095;28;87393;-66
2022/05/05 00:26:07;;;;;;;4.03;2.35;;;1.20;99.90;1.30;99061.00;;;;4870130;28;87008;-66
2022/05/05 00:28:33;;;;;;;5.32;2.50;;;1.20;99.90;1.30;99061.00;;;;4875793;28;87238;-66
2022/05/05 00:31:00;;;;;;;3.45;2.50;;;1.20;99.90;1.30;99058.00;;;;4876582;28;87665;-66
2022/05/05 00:33:26;;;;;;;3.08;2.40;;;1.20;99.90;1.30;99074.00;;;;4876886;28;87035;-66
2022/05/05 00:35:52;;;;;;;4.03;1.73;;;1.30;99.90;1.30;99073.00;;;;4853307;28;87506;-66
2022/05/05 00:38:18;;;;;;;2.85;1.95;;;1.30;99.90;1.40;99068.00;;;;4881687;28;86648;-66
2022/05/05 00:40:44;;;;;;;3.28;2.15;;;1.30;99.90;1.40;99065.00;;;;4878828;28;87049;-66
2022/05/05 00:43:11;;;;;;;4.07;2.10;;;1.20;99.90;1.30;99075.00;;;;4881848;28;87786;-66
2022/05/05 00:45:37;;;;;;;2.60;2.13;;;1.20;99.90;1.30;99090.00;;;;4876908;28;87928;-66
2022/05/05 00:48:08;;;;;;;3.42;2.40;;;1.10;99.90;1.30;99089.00;;;;4881717;28;87021;-66
2022/05/05 00:50:36;;;;;;;3.40;2.33;;;1.10;99.90;1.20;99092.00;;;;4879277;28;87668;-66
2022/05/05 00:53:04;;;;;;;3.45;2.00;;;1.10;99.90;1.30;99098.00;;;;4877492;28;87212;-66
2022/05/05 00:55:38;;;;;;;3.75;2.22;;;1.20;99.90;1.30;99091.00;;;;4879676;28;87324;-66
2022/05/05 00:58:05;;;;;;;4.97;2.25;;;1.20;99.90;1.30;99100.00;;;;4861077;28;87631;-68
2022/05/05 01:00:35;;;;;;;4.10;2.38;;;1.10;99.90;1.20;99102.00;;;;4873780;28;87669;-65
2022/05/05 01:03:02;;;;;;;3.00;2.33;;;1.10;99.90;1.20;99105.00;;;;4871906;28;88384;-65
2022/05/05 01:05:30;;;;;;;3.40;2.20;;;1.10;99.90;1.20;99098.00;;;;4854499;29;87326;-65
2022/05/05 01:07:59;;;;;;;3.65;2.17;;;1.10;99.90;1.20;99096.00;;;;4873012;28;86945;-65
2022/05/05 01:10:26;;;;;;;3.63;2.30;;;1.10;99.90;1.20;99103.00;;;;4870656;28;88774;-65
2022/05/05 01:12:52;;;;;;;5.18;2.38;;;1.10;99.90;1.10;99105.00;;;;4885004;28;88718;-65
2022/05/05 01:15:19;;;;;;;4.15;2.38;;;1.00;99.90;1.00;99095.00;;;;4868656;28;86970;-65
2022/05/05 01:17:46;;;;;;;3.33;2.17;;;0.90;99.90;0.90;99104.00;;;;4885070;28;87289;-66
2022/05/05 01:20:18;;;;;;;4.20;2.30;;;0.90;99.90;1.00;99108.00;;;;4884790;28;87482;-65
2022/05/05 01:22:45;;;;;;;4.35;2.10;;;0.80;99.90;0.90;99113.00;;;;4884487;28;87417;-65
2022/05/05 01:28:11;;;;;;;2.63;1.85;;;0.90;99.90;0.90;99114.00;;;;4878322;28;86126;-66
2022/05/05 01:30:45;;;;;;;3.22;1.90;;;0.90;99.90;1.00;99117.00;;;;4869599;28;88745;-65
2022/05/05 01:33:20;;;;;;;4.07;1.90;;;0.90;99.90;0.90;99123.00;;;;4867256;28;88511;-66
2022/05/05 01:35:49;;;;;;;3.80;2.00;;;0.80;99.90;0.90;99125.00;;;;4883964;28;88062;-65
2022/05/05 01:38:19;;;;;;;3.25;1.95;;;0.80;99.90;0.90;99133.00;;;;4884511;28;87871;-65
2022/05/05 01:40:48;;;;;;;3.70;2.05;;;0.80;99.90;0.90;99129.00;;;;4884444;28;87548;-65
2022/05/05 01:43:16;;;;;;;3.38;1.90;;;0.80;99.90;0.90;99144.00;;;;4884561;28;87796;-65
2022/05/05 01:45:44;;;;;;;3.40;2.00;;;0.80;99.90;0.90;99142.00;;;;4884711;28;87283;-65
2022/05/05 01:48:10;;;;;;;3.47;2.00;;;0.80;99.90;0.90;99158.00;;;;4885021;28;87139;-66
2022/05/05 01:50:37;;;;;;;3.97;2.20;;;0.70;99.90;0.80;99153.00;;;;4884351;28;87552;-65
2022/05/05 01:53:04;;;;;;;2.88;1.80;;;0.80;99.90;0.90;99167.00;;;;4884635;28;87150;-66
2022/05/05 01:55:32;;;;;;;3.42;1.95;;;0.70;99.90;0.80;99161.00;;;;4884714;28;86955;-65
2022/05/05 01:58:03;;;;;;;4.55;2.10;;;0.80;99.90;0.90;99164.00;;;;4883907;28;87187;-66
2022/05/05 02:00:31;;;;;;;5.77;2.40;;;0.80;99.90;0.90;99159.00;;;;4865095;28;89391;-66
2022/05/05 02:02:57;;;;;;;3.55;2.35;;;0.80;99.90;0.90;99168.00;;;;4883914;28;88191;-66
2022/05/05 02:05:23;;;;;;;2.90;1.98;;;0.80;99.90;0.90;99172.00;;;;4883989;28;87003;-66
2022/05/05 02:07:50;;;;;;;2.92;2.20;;;0.80;99.90;0.90;99161.00;;;;4884214;28;87013;-66
2022/05/05 02:10:18;;;;;;;4.88;2.28;;;0.80;99.90;0.90;99172.00;;;;4883821;28;87679;-66
2022/05/05 02:12:45;;;;;;;4.40;2.30;;;0.80;99.90;0.90;99181.00;;;;4866584;28;88435;-66
2022/05/05 02:15:13;;;;;;;3.63;2.13;;;0.80;99.90;0.90;99164.00;;;;4882920;28;87146;-66
2022/05/05 02:17:42;;;;;;;3.92;2.05;;;0.80;99.90;0.90;99175.00;;;;4867875;28;86331;-66
2022/05/05 02:20:13;;;;;;;3.63;2.20;;;0.80;99.90;0.90;99174.00;;;;4883698;28;87738;-66
2022/05/05 02:22:40;;;;;;;3.17;2.20;;;0.80;99.90;0.90;99183.00;;;;4867161;28;87328;-66
2022/05/05 02:25:08;;;;;;;4.60;2.50;;;0.80;99.90;0.90;99182.00;;;;4883852;28;87856;-66
2022/05/05 02:27:53;;;;;;;4.47;2.22;;;0.80;99.90;0.90;99192.00;;;;4883830;28;87092;-66
2022/05/05 02:30:22;;;;;;;4.28;2.33;;;0.90;99.90;1.00;99191.00;;;;4882862;28;88504;-66
2022/05/05 02:32:49;;;;;;;3.08;1.90;;;0.90;99.90;1.00;99188.00;;;;4882714;28;88362;-66
2022/05/05 02:35:16;;;;;;;3.80;2.03;;;0.90;99.90;1.10;99189.00;;;;4866836;28;87097;-66
2022/05/05 02:40:27;;;;;;;3.78;2.10;;;1.30;99.90;2.00;99193.00;;;;4883848;28;87785;-67
2022/05/05 02:42:58;;;;;;;4.88;2.03;;;1.70;99.90;2.40;99203.00;;;;4883886;28;88404;-67
2022/05/05 02:45:25;;;;;;;4.38;2.10;;;2.10;99.90;2.70;99205.00;;;;4883826;28;87307;-67
2022/05/05 02:47:51;;;;;;;2.83;1.98;;;2.40;99.90;2.90;99213.00;;;;4883360;28;87074;-65
2022/05/05 02:50:18;;;;;;;3.58;1.90;;;2.60;99.90;3.20;99208.00;;;;4882921;28;88647;-65
2022/05/05 02:52:45;;;;;;;3.60;2.10;;;2.80;99.90;3.30;99212.00;;;;4882924;28;89767;-66
2022/05/05 02:55:12;;;;;;;4.57;2.35;;;3.00;99.90;3.20;99217.00;;;;4883491;28;87025;-65
2022/05/05 02:57:38;;;;;;;4.30;2.38;;;2.90;99.90;3.30;99218.00;;;;4883525;28;87217;-65
2022/05/05 03:00:10;;;;;;;3.78;1.92;;;3.00;99.90;3.30;99217.00;;;;4883226;28;87483;-65
2022/05/05 03:02:37;;;;;;;4.35;2.20;;;3.00;99.90;3.40;99226.00;;;;4882113;28;88504;-65
2022/05/05 03:05:04;;;;;;;4.20;2.35;;;3.00;99.90;3.30;99224.00;;;;4883358;28;87286;-65
2022/05/05 03:07:30;;;;;;;3.85;2.15;;;3.10;99.90;3.60;99226.00;;;;4883968;28;86761;-66
2022/05/05 03:09:57;;;;;;;4.90;2.15;;;3.20;99.90;3.50;99217.00;;;;4866846;28;87564;-66
2022/05/05 03:12:23;;;;;;;3.75;2.28;;;3.30;99.90;3.90;99225.00;;;;4863327;28;91124;-66
2022/05/05 03:14:49;;;;;;;5.35;2.30;;;3.50;99.90;4.20;99229.00;;;;4872404;28;87979;-66
2022/05/05 03:17:15;;;;;;;3.20;2.33;;;3.80;99.90;4.10;99221.00;;;;4877907;28;87097;-66
2022/05/05 03:19:42;;;;;;;4.38;1.98;;;3.80;99.90;4.10;99238.00;;;;4875717;28;88541;-66
2022/05/05 03:22:08;;;;;;;3.80;2.13;;;3.90;99.90;4.50;99236.00;;;;4857873;28;88407;-68
2022/05/05 03:24:35;;;;;;;4.82;2.63;;;4.10;99.90;4.60;99233.00;;;;4868250;29;86952;-66
2022/05/05 03:27:01;;;;;;;3.58;2.10;;;4.20;99.90;4.60;99248.00;;;;4873773;28;87720;-66
2022/05/05 03:29:27;;;;;;;3.53;2.10;;;4.30;99.90;4.90;99249.00;;;;4878768;28;88771;-67
2022/05/05 03:31:54;;;;;;;7.00;2.40;;;4.40;99.90;5.20;99256.00;;;;4871500;28;87413;-67
2022/05/05 03:34:20;;;;;;;3.53;2.10;;;4.70;99.90;5.40;99262.00;;;;4879417;28;86924;-67
2022/05/05 03:36:46;;;;;;;3.55;2.03;;;5.00;99.90;5.80;99260.00;;;;4873452;28;87090;-67
2022/05/05 03:39:12;;;;;;;6.63;2.22;;;5.20;99.90;5.70;99266.00;;;;4876490;28;88641;-67
2022/05/05 03:41:39;;;;;;;3.58;2.03;;;5.10;99.90;5.30;99265.00;;;;4867314;28;88806;-67
2022/05/05 03:44:08;;;;;;;6.50;2.35;;;4.90;99.90;5.20;99267.00;;;;4878007;28;86962;-67
2022/05/05 03:46:34;;;;;;;3.95;1.98;;;4.80;99.90;5.50;99268.00;;;;4883779;28;87093;-66
2022/05/05 03:49:01;;;;;;;4.63;2.47;;;5.00;99.90;5.00;99284.00;;;;4879251;28;87533;-67
2022/05/05 03:51:27;;;;;;;5.22;1.95;;;4.70;99.90;4.80;99266.00;;;;4877753;28;87419;-65
2022/05/05 03:53:53;;;;;;;3.75;2.17;;;4.50;99.90;5.40;99272.00;;;;4880199;28;87511;-67
2022/05/05 03:56:19;;;;;;;5.65;1.85;;;4.80;99.90;5.10;99270.00;;;;4882134;28;86193;-65
2022/05/05 03:58:46;;;;;;;3.97;2.38;;;4.70;99.90;5.00;99299.00;;;;4875098;28;88078;-65
2022/05/05 04:01:12;;;;;;;6.80;2.35;;;4.60;99.90;5.20;99282.00;;;;4857500;29;88496;-65
2022/05/05 04:03:43;;;;;;;4.20;1.83;;;4.70;99.90;5.40;99288.00;;;;4874106;28;88150;-66
2022/05/05 04:06:11;;;;;;;5.28;1.75;;;5.00;99.90;6.20;99304.00;;;;4886077;28;86930;-65
2022/05/05 04:08:38;;;;;;;4.47;2.00;;;5.60;99.90;6.50;99294.00;;;;4878678;28;87644;-66
2022/05/05 04:11:07;;;;;;;8.00;2.35;;;5.90;99.90;6.10;99314.00;;;;4882163;28;88403;-66
2022/05/05 04:13:33;;;;;;;3.42;2.00;;;5.70;99.90;6.30;99315.00;;;;4885663;28;87438;-66
2022/05/05 04:15:59;;;;;;;4.43;2.10;;;5.80;99.90;5.30;99309.00;;;;4885697;28;87366;-67
2022/05/05 04:18:25;;;;;;;3.38;1.70;;;5.10;99.90;5.40;99326.00;;;;4884826;28;87638;-66
2022/05/05 04:20:52;;;;;;;3.95;2.20;;;5.10;99.90;5.50;99322.00;;;;4884183;28;88116;-67
2022/05/05 04:23:18;;;;;;;4.43;1.80;;;5.20;99.90;5.40;99311.00;;;;4884761;28;87076;-66
2022/05/05 04:25:45;;;;;;;7.50;2.00;;;5.10;99.90;5.80;99329.00;;;;4884693;28;87361;-66
2022/05/05 04:28:12;;;;;;;6.88;1.80;;;5.40;99.90;6.20;99328.00;;;;4884190;28;89101;-66
2022/05/05 04:30:39;;;;;;;4.40;1.77;;;5.50;99.90;5.90;99319.00;;;;4884476;28;88139;-66
2022/05/05 04:33:07;;;;;;;2.75;1.70;;;5.50;99.90;6.10;99314.00;;;;4884729;28;87847;-66
2022/05/05 04:35:38;;;;;;;5.18;2.00;;;5.50;99.90;6.30;99332.00;;;;4884792;28;86992;-66
2022/05/05 04:38:04;;;;;;;4.80;1.63;;;5.80;99.90;6.80;99326.00;;;;4867847;28;87544;-65
2022/05/05 04:40:31;;;;;;;3.60;1.70;;;6.20;99.90;6.80;99334.00;;;;4884587;28;87235;-66
2022/05/05 04:42:58;;;;;;;5.80;1.33;;;6.40;99.90;6.20;99340.00;;;;4884745;28;87035;-65
2022/05/05 04:45:24;;;;;;;3.80;1.90;;;5.90;99.90;6.30;99344.00;;;;4884983;28;86329;-66
2022/05/05 04:47:50;;;;;;;4.13;1.45;;;5.90;99.90;6.90;99334.00;;;;4884350;28;87591;-65
2022/05/05 04:50:19;;;;;;;2.70;1.40;;;6.30;99.90;6.70;99340.00;;;;4868818;28;89498;-65
2022/05/05 04:52:46;;;;;;;4.85;1.60;;;6.20;99.90;6.30;99336.00;;;;4884467;28;88972;-66
2022/05/05 04:55:12;;;;;;;2.80;1.40;;;6.00;99.90;5.90;99349.00;;;;4885335;28;87271;-66
2022/05/05 04:57:38;;;;;;;5.03;1.52;;;5.70;99.90;5.90;99345.00;;;;4884436;28;88081;-67
2022/05/05 05:00:09;;;;;;;2.42;1.23;;;5.60;99.90;6.00;99349.00;;;;4884570;28;87668;-67
2022/05/05 05:02:36;;;;;;;5.32;1.63;;;5.60;99.90;6.20;99349.00;;;;4851809;28;87069;-66
2022/05/05 05:05:03;;;;;;;3.45;1.50;;;5.80;99.90;6.90;99350.00;;;;4884581;28;86994;-66
2022/05/05 05:07:29;;;;;;;6.65;1.80;;;6.30;99.90;6.30;99356.00;;;;4884879;28;87601;-66
2022/05/05 05:09:55;;;;;;;2.65;1.50;;;5.90;99.90;6.20;99363.00;;;;4884509;28;87685;-66
2022/05/05 05:12:21;;;;;;;5.05;2.13;;;5.90;99.90;5.70;99356.00;;;;4884054;28;86947;-66
2022/05/05 05:14:47;;;;;;;4.40;1.85;;;5.50;99.90;6.30;99360.00;;;;4884617;28;87567;-67
2022/05/05 05:17:14;;;;;;;3.90;1.70;;;5.90;99.90;6.80;99353.00;;;;4867432;28;88878;-67
2022/05/05 05:19:40;;;;;;;4.32;1.70;;;6.20;99.90;6.80;99368.00;;;;4883827;28;89213;-67
2022/05/05 05:22:06;;;;;;;2.70;1.38;;;6.30;99.90;6.40;99372.00;;;;4884275;28;87253;-66
2022/05/05 05:24:33;;;;;;;6.03;1.83;;;6.30;99.90;6.10;99368.00;;;;4867793;28;87187;-67
2022/05/05 05:26:59;;;;;;;6.22;1.80;;;5.90;99.90;6.10;99372.00;;;;4884017;28;87907;-66
2022/05/05 05:29:25;;;;;;;3.78;1.67;;;5.90;99.90;6.30;99387.00;;;;4884120;28;88238;-67
2022/05/05 05:31:52;;;;;;;7.13;1.77;;;5.90;99.90;6.70;99379.00;;;;4883217;28;88104;-66
2022/05/05 05:34:18;;;;;;;6.78;2.40;;;6.30;99.90;6.80;99382.00;;;;4884010;28;86398;-66
2022/05/05 05:36:44;;;;;;;5.88;1.70;;;6.30;99.90;6.60;99390.00;;;;4881795;28;88659;-67
2022/05/05 05:39:10;;;;;;;4.47;1.42;;;6.40;99.90;5.70;99394.00;;;;4884129;28;87229;-66
2022/05/05 05:41:36;;;;;;;3.78;1.30;;;5.60;99.90;5.80;99399.00;;;;4866455;28;88140;-66
2022/05/05 05:44:03;;;;;;;6.80;1.85;;;5.60;99.90;6.00;99395.00;;;;4884205;28;87924;-67
2022/05/05 05:46:29;;;;;;;4.78;1.70;;;5.70;99.90;6.00;99393.00;;;;4883908;28;88767;-66
2022/05/05 05:48:56;;;;;;;5.50;1.70;;;5.80;99.90;6.50;99396.00;;;;4884029;28;88547;-66
2022/05/05 05:51:24;;;;;;;5.10;1.80;;;6.00;99.90;6.30;99390.00;;;;4883394;28;87005;-67
2022/05/05 05:53:51;;;;;;;3.70;1.42;;;5.90;99.90;6.10;99400.00;;;;4883684;28;87043;-66
2022/05/05 05:56:17;;;;;;;2.78;1.30;;;5.80;99.90;6.10;99397.00;;;;4865936;28;89608;-66
2022/05/05 05:58:46;;;;;;;4.47;1.20;;;5.70;99.90;6.10;99419.00;;;;4883747;28;87648;-66
2022/05/05 06:01:13;;;;;;;2.65;1.23;;;5.70;99.90;6.10;99393.00;;;;4883998;28;87704;-65
2022/05/05 06:03:54;;;;;;;4.18;1.35;;;5.60;99.90;5.90;99398.00;;;;4883593;28;87528;-66
2022/05/05 06:06:24;;;;;;;4.07;1.20;;;5.60;99.90;5.40;99395.00;;;;4851369;28;88835;-66
2022/05/05 06:08:51;;;;;;;4.65;1.20;;;5.30;99.90;5.40;99410.00;;;;4883623;28;88691;-67
2022/05/05 06:11:19;;;;;;;3.22;1.20;;;5.20;99.90;5.60;99414.00;;;;4883332;28;86988;-66
2022/05/05 06:13:45;;;;;;;2.42;1.30;;;5.30;99.90;5.70;99393.00;;;;4883879;28;87338;-67
2022/05/05 06:16:11;;;;;;;2.33;1.02;;;5.50;99.90;5.50;99403.00;;;;4866556;28;88647;-66
2022/05/05 06:18:38;;;;;;;5.90;1.30;;;5.30;99.90;5.40;99404.00;;;;4883150;28;87781;-66
2022/05/05 06:21:05;;;;;;;6.18;1.30;;;5.20;99.90;5.30;99430.00;;;;4866610;28;87639;-66
2022/05/05 06:23:31;;;;;;;2.20;0.98;;;5.10;99.90;5.00;99440.00;;;;4884212;28;86429;-66
2022/05/05 06:25:57;;;;;;;2.22;1.13;;;4.80;99.90;5.00;99419.00;;;;4851286;28;87703;-66
2022/05/05 06:28:24;;;;;;;4.63;1.35;;;4.90;99.60;5.30;99425.00;;;;4866570;28;87878;-66
2022/05/05 06:30:50;;;;;;;2.60;0.95;;;5.10;99.80;5.20;99426.00;;;;4882409;28;88041;-66
2022/05/05 06:33:16;;;;;;;2.45;1.05;;;5.10;99.30;5.10;99437.00;;;;4883424;28;87456;-66
2022/05/05 06:35:42;;;;;;;2.78;1.15;;;5.20;98.80;5.30;99429.00;;;;4864369;28;87503;-66
2022/05/05 06:38:08;;;;;;;2.45;0.88;;;5.20;98.70;5.70;99427.00;;;;4883208;28;87319;-65
2022/05/05 06:40:34;;;;;;;4.70;1.13;;;5.50;99.50;5.90;99426.00;;;;4866581;28;87357;-65
2022/05/05 06:43:01;;;;;;;2.63;1.10;;;5.70;98.90;6.10;99425.00;;;;4883626;28;87003;-66
2022/05/05 06:45:27;;;;;;;6.05;1.02;;;5.90;94.80;6.30;99441.00;;;;4882964;28;87536;-66
2022/05/05 06:47:54;;;;;;;2.25;1.20;;;6.00;95.80;6.50;99435.00;;;;4885128;28;88000;-66
2022/05/05 06:50:21;;;;;;;1.77;0.93;;;6.30;94.50;5.90;99433.00;;;;4882941;28;88095;-65
2022/05/05 06:52:50;;;;;;;1.15;0.90;;;5.80;93.30;6.00;99431.00;;;;4887206;28;87088;-65
2022/05/05 06:55:18;;;;;;;3.35;1.13;;;5.80;92.10;6.10;99439.00;;;;4886961;28;89724;-65
2022/05/05 06:57:46;;;;;;;1.77;0.77;;;5.90;91.20;5.80;99448.00;;;;4887411;28;88407;-66
2022/05/05 07:00:13;;;;;;;4.57;1.05;;;5.60;91.60;5.80;99444.00;;;;4887492;28;87100;-66
2022/05/05 07:02:39;;;;;;;3.15;0.80;;;5.70;90.10;5.70;99434.00;;;;4886802;28;87386;-66
2022/05/05 07:05:26;;;;;;;2.70;1.08;;;5.50;88.40;5.50;99459.00;;;;4887301;28;87617;-65
2022/05/05 07:07:52;;;;;;;2.20;0.95;;;5.40;88.50;5.50;99444.00;;;;4887580;28;87353;-66
2022/05/05 07:13:05;;;;;;;5.88;1.10;;;5.50;87.10;5.90;99425.00;;;;4891568;28;86289;-65
2022/05/05 07:15:32;;;;;;;2.15;1.10;;;5.80;87.40;5.90;99438.00;;;;4886709;28;88268;-66
2022/05/05 07:17:59;;;;;;;1.27;0.80;;;5.90;79.20;6.10;99433.00;;;;4886860;28;88069;-65
2022/05/05 07:20:25;;;;;;;1.75;0.85;;;5.90;78.90;5.90;99451.00;;;;4886268;28;88228;-66
2022/05/05 07:22:56;;;;;;;1.55;0.80;;;5.80;74.90;6.10;99435.00;;;;4870274;28;87280;-65
2022/05/05 07:25:24;;;;;;;4.32;1.10;;;5.90;76.00;5.80;99451.00;;;;4887189;28;86966;-64
2022/05/05 07:27:50;;;;;;;3.78;1.20;;;5.80;72.30;5.90;99449.00;;;;4886574;28;87244;-65
2022/05/05 07:30:16;;;;;;;4.43;1.10;;;5.80;76.00;5.50;99453.00;;;;4886632;28;86985;-66
2022/05/05 07:32:43;;;;;;;2.80;1.08;;;5.60;74.00;5.80;99452.00;;;;4885735;28;87011;-65
2022/05/05 07:35:11;;;;;;;5.15;1.40;;;5.60;74.20;5.80;99444.00;;;;4885869;28;88606;-65
2022/05/05 07:37:39;;;;;;;4.18;1.00;;;5.70;75.20;5.90;99436.00;;;;4887021;28;87224;-66
2022/05/05 07:40:07;;;;;;;3.25;0.90;;;5.90;72.10;6.20;99448.00;;;;4886936;28;86996;-66
2022/05/05 07:42:34;;;;;;;4.57;1.20;;;6.10;71.40;5.90;99464.00;;;;4886777;28;87340;-66
2022/05/05 07:45:00;;;;;;;2.65;1.08;;;5.90;69.50;5.90;99465.00;;;;4885793;28;88278;-65
2022/05/05 07:47:26;;;;;;;3.60;1.23;;;5.80;71.30;6.30;99461.00;;;;4886871;28;88140;-66
2022/05/05 07:49:52;;;;;;;3.63;1.02;;;6.20;72.60;6.60;99453.00;;;;4886176;28;87154;-66
2022/05/05 07:52:18;;;;;;;3.85;1.20;;;6.40;72.20;6.40;99451.00;;;;4886139;28;87001;-65
2022/05/05 07:54:45;;;;;;;2.10;0.80;;;6.20;68.90;6.40;99456.00;;;;4886486;28;87385;-65
2022/05/05 07:57:13;;;;;;;2.67;0.90;;;6.30;69.00;6.20;99448.00;;;;4869794;28;87380;-65
2022/05/05 07:59:44;;;;;;;2.83;1.15;;;6.00;67.80;6.40;99437.00;;;;4885804;28;87502;-66
2022/05/05 08:02:13;;;;;;;2.70;1.17;;;6.30;68.50;6.00;99481.00;;;;4886082;28;86330;-65
2022/05/05 08:04:44;;;;;;;4.55;1.17;;;5.90;69.60;6.20;99466.00;;;;4870941;28;87597;-66
2022/05/05 08:07:11;;;;;;;1.00;0.80;;;6.10;68.10;6.10;99478.00;;;;4886657;28;88710;-65
2022/05/05 08:09:38;;;;;;;2.65;1.00;;;6.00;61.80;6.20;99463.00;;;;4868512;28;88073;-65
2022/05/05 08:12:05;;;;;;;4.85;1.08;;;6.20;63.50;6.40;99454.00;;;;4886167;28;87088;-65
2022/05/05 08:14:32;;;;;;;3.53;1.02;;;6.30;61.40;6.40;99460.00;;;;4885820;28;87646;-64
2022/05/05 08:16:58;;;;;;;1.73;1.05;;;6.40;64.00;6.60;99458.00;;;;4885290;28;87270;-65
2022/05/05 08:19:25;;;;;;;1.70;1.33;;;6.40;65.30;6.60;99445.00;;;;4885839;28;87128;-66
2022/05/05 08:21:51;;;;;;;3.65;1.15;;;6.50;67.20;6.70;99457.00;;;;4885514;28;87043;-65
2022/05/05 08:29:47;;;;;;;3.58;1.30;;;6.60;65.00;6.90;99456.00;;;;4885766;28;87299;-65
2022/05/05 08:32:13;;;;;;;3.88;1.25;;;6.70;63.00;7.10;99439.00;;;;4884379;28;87393;-65
2022/05/05 08:34:39;;;;;;;14.60;1.70;;;6.90;65.30;7.30;99449.00;;;;4884229;28;89529;-65
2022/05/05 08:37:06;;;;;;;5.40;1.40;;;7.00;61.90;7.20;99467.00;;;;4885656;28;89525;-65
2022/05/05 08:39:32;;;;;;;4.72;1.30;;;7.00;60.90;7.20;99458.00;;;;4886325;28;87015;-65
2022/05/05 08:41:58;;;;;;;4.00;1.05;;;7.10;63.10;7.10;99462.00;;;;4885883;28;87025;-65
2022/05/05 08:44:25;;;;;;;2.10;1.17;;;7.00;62.60;7.20;99467.00;;;;4885736;28;87010;-65
2022/05/05 08:46:54;;;;;;;4.70;0.90;;;6.90;58.40;7.10;99457.00;;;;4871246;28;88202;-65
2022/05/05 08:49:24;;;;;;;2.03;1.10;;;6.90;58.00;7.10;99478.00;;;;4872623;28;86979;-65
2022/05/05 08:51:53;;;;;;;3.35;1.00;;;7.00;60.10;7.20;99460.00;;;;4871691;28;86412;-65
2022/05/05 08:54:25;;;;;;;2.83;1.40;;;7.10;59.30;7.20;99458.00;;;;4882063;28;87711;-65
2022/05/05 08:56:52;;;;;;;2.03;1.10;;;6.90;58.00;7.40;99461.00;;;;4881828;28;87498;-65
2022/05/05 08:59:20;;;;;;;3.17;1.02;;;7.20;59.10;7.40;99454.00;;;;4881585;28;88667;-65
2022/05/05 09:01:46;;;;;;;4.65;1.20;;;7.20;62.10;7.40;99469.00;;;;4864420;28;88235;-65
2022/05/05 09:04:12;;;;;;;4.93;1.10;;;7.30;58.80;7.30;99463.00;;;;4881119;28;87608;-64
2022/05/05 09:06:47;;;;;;;3.47;0.90;;;7.20;56.80;6.90;99468.00;;;;4882098;28;87499;-64
2022/05/05 09:09:27;;;;;;;3.10;0.80;;;6.80;52.60;7.10;99450.00;;;;4872068;28;87152;-63
2022/05/05 09:12:15;;;;;;;1.92;1.08;;;6.90;54.50;7.20;99465.00;;;;4880913;28;87208;-63
2022/05/05 09:14:53;;;;;;;1.10;0.88;;;7.00;54.70;7.20;99456.00;;;;4871812;28;87549;-62
2022/05/05 09:17:22;;;;;;;3.25;1.13;;;7.00;54.40;7.20;99453.00;;;;4887456;28;88358;-63
2022/05/05 09:19:54;;;;;;;2.30;1.20;;;7.00;54.90;7.20;99455.00;;;;4881724;28;88098;-63
2022/05/05 09:22:24;;;;;;;4.22;1.20;;;7.10;55.80;7.20;99479.00;;;;4886579;28;87110;-63
2022/05/05 09:24:53;;;;;;;3.88;1.13;;;7.10;55.60;7.20;99467.00;;;;4880423;28;88748;-64
2022/05/05 09:27:20;;;;;;;4.05;1.10;;;7.00;54.70;7.30;99463.00;;;;4881692;28;87751;-64
2022/05/05 09:30:01;;;;;;;3.63;0.85;;;7.10;55.40;7.30;99461.00;;;;4881315;28;87546;-63
2022/05/05 09:32:36;;;;;;;2.63;0.98;;;7.10;53.90;7.30;99471.00;;;;4870373;28;87742;-64
2022/05/05 09:35:15;;;;;;;4.90;1.20;;;7.20;54.00;7.20;99465.00;;;;4880734;28;88562;-63
2022/05/05 09:37:49;;;;;;;1.85;1.02;;;7.10;52.90;7.40;99467.00;;;;4881659;28;88422;-64
2022/05/05 09:40:18;;;;;;;2.40;0.98;;;7.20;52.90;7.40;99470.00;;;;4872355;28;87127;-63
2022/05/05 09:42:51;;;;;;;1.90;0.88;;;7.20;51.40;7.60;99474.00;;;;4881599;28;86366;-63
2022/05/05 09:45:26;;;;;;;1.85;1.00;;;7.40;52.40;7.70;99468.00;;;;4881324;28;87075;-63
2022/05/05 09:47:54;;;;;;;3.05;0.95;;;7.40;53.60;7.90;99464.00;;;;4881896;28;88154;-63
2022/05/05 09:50:26;;;;;;;1.60;1.02;;;7.70;53.70;8.00;99465.00;;;;4881302;28;87992;-64
2022/05/05 09:58:39;;;;;;;2.85;1.08;;;8.00;53.50;7.90;99461.00;;;;4881248;28;87224;-63
2022/05/05 10:01:09;;;;;;;4.30;0.90;;;7.80;52.80;8.10;99462.00;;;;4880641;28;87490;-63
2022/05/05 10:04:00;;;;;;;1.70;1.02;;;7.90;52.40;8.20;99463.00;;;;4880941;28;88142;-63
2022/05/05 10:06:34;;;;;;;5.88;0.93;;;7.90;53.00;8.30;99460.00;;;;4881446;28;89073;-63
2022/05/05 10:09:23;;;;;;;2.63;0.85;;;8.00;52.70;8.30;99464.00;;;;4881731;28;87266;-63
2022/05/05 10:11:50;;;;;;;3.47;1.15;;;8.10;52.50;8.00;99460.00;;;;4887865;28;87906;-63
2022/05/05 10:14:16;;;;;;;2.58;1.15;;;7.80;51.10;8.20;99463.00;;;;4890270;28;87146;-63
2022/05/05 10:16:43;;;;;;;1.83;1.00;;;7.90;52.20;8.00;99481.00;;;;4880428;28;89334;-62
2022/05/05 10:19:10;;;;;;;1.60;0.80;;;7.80;52.10;7.70;99474.00;;;;4889299;28;89487;-63
2022/05/05 10:22:11;;;;;;;3.35;1.10;;;7.60;51.40;7.70;99488.00;;;;4888898;28;87576;-62
2022/05/05 10:24:52;;;;;;;3.63;0.98;;;7.50;50.90;7.80;99467.00;;;;4890664;28;87015;-63
2022/05/05 10:27:18;;;;;;;3.20;1.20;;;7.60;51.60;8.00;99472.00;;;;4890462;28;88692;-63
2022/05/05 10:29:46;;;;;;;4.18;1.00;;;7.80;52.60;8.20;99470.00;;;;4872698;28;87892;-63
2022/05/05 10:32:17;;;;;;;3.85;1.15;;;7.90;50.90;8.10;99469.00;;;;4887695;28;87130;-63
2022/05/05 10:34:56;;;;;;;2.38;1.20;;;7.90;51.10;8.00;99475.00;;;;4888613;28;87280;-62
2022/05/05 10:37:37;;;;;;;1.50;1.10;;;7.80;51.30;8.00;99468.00;;;;4872777;28;88740;-63
2022/05/05 10:40:09;;;;;;;2.20;1.15;;;7.80;50.90;8.20;99463.00;;;;4890801;28;88031;-63
2022/05/05 10:42:44;;;;;;;;;;;7.90;51.90;8.30;99453.00;;;;4891051;28;88473;-63
2022/05/05 10:45:31;;;;;;;3.40;1.33;;;8.10;52.50;8.60;99454.00;;;;4890292;28;88243;-63
2022/05/05 10:47:58;;;;;;;1.73;1.13;;;8.30;52.30;8.80;99454.00;;;;4890024;28;88770;-62
2022/05/05 10:50:43;;;;;;;5.05;1.20;;;8.50;52.30;8.90;99470.00;;;;4890103;28;87840;-63
2022/05/05 10:53:40;;;;;;;3.22;1.23;;;8.50;52.20;8.70;99456.00;;;;4889062;28;88058;-63
2022/05/05 10:56:29;;;;;;;3.90;1.00;;;8.30;50.80;8.40;99476.00;;;;4889219;28;87035;-63
2022/05/05 10:59:03;;;;;;;3.30;1.08;;;8.20;50.10;8.40;99460.00;;;;4889068;28;87582;-63
2022/05/05 11:01:42;;;;;;;1.92;1.00;;;8.20;50.30;8.40;99468.00;;;;4889005;28;89375;-63
2022/05/05 11:04:24;;;;;;;2.42;1.10;;;8.20;51.30;8.60;99467.00;;;;4878507;28;87055;-63
2022/05/05 11:07:30;;;;;;;2.42;1.10;;;8.30;50.30;8.70;99469.00;;;;4890060;28;88181;-63
2022/05/05 11:09:59;;;;;;;2.55;1.00;;;8.50;50.40;8.80;99461.00;;;;4888572;28;88725;-63
2022/05/05 11:12:34;;;;;;;2.35;1.10;;;8.50;49.40;8.60;99466.00;;;;4889336;28;88181;-63
2022/05/05 11:23:48;;;;;;;3.13;1.13;;;8.40;50.20;8.80;99463.00;;;;4889298;28;88568;-64
2022/05/05 11:26:21;;;;;;;3.63;1.10;;;8.50;51.00;9.00;99454.00;;;;4888696;28;87901;-63
2022/05/05 11:28:48;;;;;;;1.75;1.00;;;8.70;50.20;9.00;99451.00;;;;4889578;28;86969;-64
2022/05/05 11:31:23;;;;;;;6.93;1.15;;;8.70;50.20;9.00;99456.00;;;;4888555;28;87859;-64
2022/05/05 11:34:05;;;;;;;4.15;1.17;;;8.70;50.20;9.20;99446.00;;;;4890096;28;87656;-63
2022/05/05 11:36:34;;;;;;;6.68;1.42;;;8.90;50.30;9.10;99461.00;;;;4875119;28;88037;-63
2022/05/05 11:39:03;;;;;;;4.20;0.98;;;8.90;49.30;9.20;99468.00;;;;4891940;28;87362;-63
2022/05/05 11:41:30;;;;;;;2.35;1.10;;;8.90;48.50;9.20;99467.00;;;;4876201;28;88915;-64
2022/05/05 11:44:15;;;;;;;2.83;1.30;;;9.00;47.90;9.20;99454.00;;;;4891340;28;87107;-63
2022/05/05 11:46:41;;;;;;;2.90;1.30;;;8.90;48.60;9.20;99452.00;;;;4893117;28;87889;-63
2022/05/05 11:49:08;;;;;;;3.25;1.20;;;8.90;47.40;9.00;99464.00;;;;4891871;28;87096;-64
2022/05/05 11:51:36;;;;;;;2.72;1.00;;;8.70;46.70;9.10;99465.00;;;;4891369;28;88244;-64